sensor_id;sensor_type;location;lat;lon;timestamp;pressure;altitude;pressure_sealevel;temperature;humidity
40794;BME280;26502;51.886;15.604;2023-06-22T00:04:21;100949.80;;;22.28;58.58
40794;BME280;26502;51.886;15.604;2023-06-22T00:09:27;100958.88;;;22.21;58.65
40794;BME280;26502;51.886;15.604;2023-06-22T00:14:32;100962.71;;;22.04;59.02
40794;BME280;26502;51.886;15.604;2023-06-22T00:19:38;100963.70;;;22.00;59.24
40794;BME280;26502;51.886;15.604;2023-06-22T00:24:44;100971.86;;;22.00;59.37
40794;BME280;26502;51.886;15.604;2023-06-22T00:29:50;100980.88;;;21.83;59.53
40794;BME280;26502;51.886;15.604;2023-06-22T00:34:56;100980.52;;;21.78;59.72
40794;BME280;26502;51.886;15.604;2023-06-22T00:40:01;100986.31;;;21.68;59.80
40794;BME280;26502;51.886;15.604;2023-06-22T00:45:09;100996.64;;;21.63;60.20
40794;BME280;26502;51.886;15.604;2023-06-22T00:50:19;101003.66;;;21.54;60.22
40794;BME280;26502;51.886;15.604;2023-06-22T00:55:26;101011.73;;;21.34;60.22
40794;BME280;26502;51.886;15.604;2023-06-22T01:00:32;101012.23;;;21.20;60.62
40794;BME280;26502;51.886;15.604;2023-06-22T01:05:39;101012.09;;;21.29;60.77
40794;BME280;26502;51.886;15.604;2023-06-22T01:10:48;101008.80;;;21.32;60.74
40794;BME280;26502;51.886;15.604;2023-06-22T01:15:59;101006.36;;;21.26;60.96
40794;BME280;26502;51.886;15.604;2023-06-22T01:21:07;101007.11;;;21.21;60.98
40794;BME280;26502;51.886;15.604;2023-06-22T01:26:20;101012.87;;;21.01;61.19
40794;BME280;26502;51.886;15.604;2023-06-22T01:31:28;101013.34;;;20.94;61.46
40794;BME280;26502;51.886;15.604;2023-06-22T01:36:35;101024.48;;;20.84;61.46
40794;BME280;26502;51.886;15.604;2023-06-22T01:41:42;101034.27;;;20.78;61.63
40794;BME280;26502;51.886;15.604;2023-06-22T01:46:49;101040.59;;;20.65;61.74
40794;BME280;26502;51.886;15.604;2023-06-22T01:51:55;101040.90;;;20.63;62.02
40794;BME280;26502;51.886;15.604;2023-06-22T01:57:01;101050.38;;;20.70;61.98
40794;BME280;26502;51.886;15.604;2023-06-22T02:02:09;101048.49;;;20.71;61.84
40794;BME280;26502;51.886;15.604;2023-06-22T02:07:14;101042.94;;;20.63;62.14
40794;BME280;26502;51.886;15.604;2023-06-22T02:12:24;101042.13;;;20.56;62.09
40794;BME280;26502;51.886;15.604;2023-06-22T02:17:32;101041.16;;;20.49;62.10
40794;BME280;26502;51.886;15.604;2023-06-22T02:22:39;101043.81;;;20.39;62.13
40794;BME280;26502;51.886;15.604;2023-06-22T02:27:45;101048.89;;;20.33;62.20
40794;BME280;26502;51.886;15.604;2023-06-22T02:32:50;101054.85;;;20.28;62.24
40794;BME280;26502;51.886;15.604;2023-06-22T02:38:04;101050.50;;;20.28;62.51
40794;BME280;26502;51.886;15.604;2023-06-22T02:43:10;101053.17;;;20.31;62.42
40794;BME280;26502;51.886;15.604;2023-06-22T02:48:16;101058.55;;;20.26;62.49
40794;BME280;26502;51.886;15.604;2023-06-22T02:53:22;101061.95;;;20.16;62.63
40794;BME280;26502;51.886;15.604;2023-06-22T02:58:27;101058.20;;;20.15;62.71
40794;BME280;26502;51.886;15.604;2023-06-22T04:30:38;101080.95;;;21.57;62.55
40794;BME280;26502;51.886;15.604;2023-06-22T04:35:50;101072.88;;;21.33;63.17
40794;BME280;26502;51.886;15.604;2023-06-22T04:40:56;101065.98;;;21.28;63.77
40794;BME280;26502;51.886;15.604;2023-06-22T04:46:02;101070.05;;;21.32;64.38
40794;BME280;26502;51.886;15.604;2023-06-22T04:51:08;101070.27;;;21.42;64.53
40794;BME280;26502;51.886;15.604;2023-06-22T04:56:14;101060.99;;;21.53;65.15
40794;BME280;26502;51.886;15.604;2023-06-22T05:01:22;101052.44;;;21.69;65.68
40794;BME280;26502;51.886;15.604;2023-06-22T05:06:28;101056.89;;;21.92;65.92
40794;BME280;26502;51.886;15.604;2023-06-22T05:11:34;101069.23;;;22.13;65.87
40794;BME280;26502;51.886;15.604;2023-06-22T05:16:40;101070.62;;;22.33;65.90
40794;BME280;26502;51.886;15.604;2023-06-22T05:21:46;101068.66;;;22.50;65.97
40794;BME280;26502;51.886;15.604;2023-06-22T05:26:52;101071.67;;;22.70;65.95
40794;BME280;26502;51.886;15.604;2023-06-22T05:31:58;101073.63;;;22.91;65.85
40794;BME280;26502;51.886;15.604;2023-06-22T05:37:04;101076.92;;;23.14;65.56
40794;BME280;26502;51.886;15.604;2023-06-22T05:42:10;101088.85;;;23.24;64.82
40794;BME280;26502;51.886;15.604;2023-06-22T05:47:16;101094.26;;;23.35;64.30
40794;BME280;26502;51.886;15.604;2023-06-22T05:52:22;101101.04;;;23.53;63.85
40794;BME280;26502;51.886;15.604;2023-06-22T05:57:28;101103.23;;;23.80;63.80
40794;BME280;26502;51.886;15.604;2023-06-22T06:02:33;101113.60;;;23.88;63.36
40794;BME280;26502;51.886;15.604;2023-06-22T06:07:40;101123.08;;;23.99;62.88
40794;BME280;26502;51.886;15.604;2023-06-22T06:12:45;101122.55;;;24.01;62.62
40794;BME280;26502;51.886;15.604;2023-06-22T06:17:52;101121.47;;;24.25;62.57
40794;BME280;26502;51.886;15.604;2023-06-22T06:22:58;101126.10;;;24.55;62.05
40794;BME280;26502;51.886;15.604;2023-06-22T06:28:04;101145.29;;;24.66;61.44
40794;BME280;26502;51.886;15.604;2023-06-22T06:33:10;101141.91;;;24.78;61.27
40794;BME280;26502;51.886;15.604;2023-06-22T06:38:15;101143.90;;;25.04;60.87
40794;BME280;26502;51.886;15.604;2023-06-22T06:43:21;101141.45;;;25.11;60.55
40794;BME280;26502;51.886;15.604;2023-06-22T06:48:27;101143.04;;;25.24;59.98
40794;BME280;26502;51.886;15.604;2023-06-22T06:53:32;101146.06;;;25.38;59.65
40794;BME280;26502;51.886;15.604;2023-06-22T06:58:40;101144.12;;;25.60;59.56
40794;BME280;26502;51.886;15.604;2023-06-22T07:03:46;101136.90;;;25.78;59.00
40794;BME280;26502;51.886;15.604;2023-06-22T07:08:52;101134.95;;;25.84;58.39
40794;BME280;26502;51.886;15.604;2023-06-22T07:13:57;101128.42;;;25.38;57.88
40794;BME280;26502;51.886;15.604;2023-06-22T07:19:07;101132.80;;;25.33;58.05
40794;BME280;26502;51.886;15.604;2023-06-22T07:24:12;101131.56;;;25.40;57.72
40794;BME280;26502;51.886;15.604;2023-06-22T07:29:18;101135.09;;;25.64;57.72
40794;BME280;26502;51.886;15.604;2023-06-22T07:34:24;101131.18;;;26.13;57.71
40794;BME280;26502;51.886;15.604;2023-06-22T07:39:32;101122.58;;;26.44;56.85
40794;BME280;26502;51.886;15.604;2023-06-22T07:44:39;101119.04;;;26.19;56.16
40794;BME280;26502;51.886;15.604;2023-06-22T07:49:44;101099.31;;;25.81;56.18
40794;BME280;26502;51.886;15.604;2023-06-22T07:54:50;101094.62;;;26.23;55.97
40794;BME280;26502;51.886;15.604;2023-06-22T07:59:56;101093.98;;;26.28;55.25
40794;BME280;26502;51.886;15.604;2023-06-22T08:05:02;101080.77;;;26.31;55.43
40794;BME280;26502;51.886;15.604;2023-06-22T08:10:11;101066.48;;;26.60;55.19
40794;BME280;26502;51.886;15.604;2023-06-22T08:15:17;101061.58;;;26.94;54.39
40794;BME280;26502;51.886;15.604;2023-06-22T08:20:23;101075.48;;;26.95;53.77
40794;BME280;26502;51.886;15.604;2023-06-22T08:25:29;101078.42;;;27.05;53.41
40794;BME280;26502;51.886;15.604;2023-06-22T08:30:34;101077.16;;;27.28;52.80
40794;BME280;26502;51.886;15.604;2023-06-22T08:35:41;101087.80;;;27.42;51.15
40794;BME280;26502;51.886;15.604;2023-06-22T08:40:48;101088.41;;;27.49;50.33
40794;BME280;26502;51.886;15.604;2023-06-22T08:45:53;101086.77;;;27.54;49.52
40794;BME280;26502;51.886;15.604;2023-06-22T08:50:59;101089.90;;;27.78;48.77
40794;BME280;26502;51.886;15.604;2023-06-22T08:56:07;101086.96;;;28.18;48.02
40794;BME280;26502;51.886;15.604;2023-06-22T09:01:12;101092.67;;;28.57;47.11
40794;BME280;26502;51.886;15.604;2023-06-22T09:06:19;101088.90;;;28.49;46.23
40794;BME280;26502;51.886;15.604;2023-06-22T09:11:25;101088.04;;;28.44;45.36
40794;BME280;26502;51.886;15.604;2023-06-22T09:16:31;101069.83;;;28.39;44.60
40794;BME280;26502;51.886;15.604;2023-06-22T09:21:38;101063.58;;;28.03;44.66
40794;BME280;26502;51.886;15.604;2023-06-22T09:26:43;101055.22;;;28.44;44.80
40794;BME280;26502;51.886;15.604;2023-06-22T09:31:49;101047.39;;;28.49;43.62
40794;BME280;26502;51.886;15.604;2023-06-22T09:36:58;101042.92;;;28.59;43.44
40794;BME280;26502;51.886;15.604;2023-06-22T09:42:07;101042.59;;;28.71;42.51
40794;BME280;26502;51.886;15.604;2023-06-22T09:47:13;101035.83;;;28.96;42.17
40794;BME280;26502;51.886;15.604;2023-06-22T09:52:18;101027.30;;;28.99;40.95
40794;BME280;26502;51.886;15.604;2023-06-22T09:57:24;101022.70;;;28.87;41.01
40794;BME280;26502;51.886;15.604;2023-06-22T10:02:30;101016.85;;;29.32;41.03
40794;BME280;26502;51.886;15.604;2023-06-22T10:07:36;101017.23;;;29.49;40.54
40794;BME280;26502;51.886;15.604;2023-06-22T10:12:47;101013.70;;;29.50;40.24
40794;BME280;26502;51.886;15.604;2023-06-22T10:17:53;101010.32;;;29.54;39.93
40794;BME280;26502;51.886;15.604;2023-06-22T10:22:58;101006.99;;;29.37;39.17
40794;BME280;26502;51.886;15.604;2023-06-22T10:28:04;100997.78;;;29.29;38.77
40794;BME280;26502;51.886;15.604;2023-06-22T10:33:11;100993.02;;;29.60;38.98
40794;BME280;26502;51.886;15.604;2023-06-22T10:38:17;100992.19;;;30.03;38.49
40794;BME280;26502;51.886;15.604;2023-06-22T10:43:23;100998.16;;;30.42;38.18
40794;BME280;26502;51.886;15.604;2023-06-22T10:48:28;101002.58;;;30.71;37.41
40794;BME280;26502;51.886;15.604;2023-06-22T10:53:34;101000.06;;;30.58;36.91
40794;BME280;26502;51.886;15.604;2023-06-22T10:58:40;100994.72;;;30.33;36.15
40794;BME280;26502;51.886;15.604;2023-06-22T11:03:46;100995.33;;;30.64;36.46
40794;BME280;26502;51.886;15.604;2023-06-22T11:08:52;101000.66;;;31.06;36.03
40794;BME280;26502;51.886;15.604;2023-06-22T11:13:57;100995.19;;;31.44;35.69
40794;BME280;26502;51.886;15.604;2023-06-22T11:19:04;100990.45;;;31.59;35.25
40794;BME280;26502;51.886;15.604;2023-06-22T11:24:10;100983.06;;;31.10;34.33
40794;BME280;26502;51.886;15.604;2023-06-22T11:29:16;100982.77;;;30.92;34.77
40794;BME280;26502;51.886;15.604;2023-06-22T11:34:21;100981.81;;;31.07;34.88
40794;BME280;26502;51.886;15.604;2023-06-22T11:39:27;100979.87;;;31.15;34.98
40794;BME280;26502;51.886;15.604;2023-06-22T11:44:33;100971.90;;;31.18;34.85
40794;BME280;26502;51.886;15.604;2023-06-22T11:49:39;100956.16;;;31.57;34.60
40794;BME280;26502;51.886;15.604;2023-06-22T11:54:45;100947.67;;;31.89;34.30
40794;BME280;26502;51.886;15.604;2023-06-22T11:59:51;100947.45;;;31.72;34.09
40794;BME280;26502;51.886;15.604;2023-06-22T12:04:56;100950.41;;;31.55;33.92
40794;BME280;26502;51.886;15.604;2023-06-22T12:10:03;100942.66;;;31.58;34.00
40794;BME280;26502;51.886;15.604;2023-06-22T12:15:08;100934.09;;;31.53;33.90
40794;BME280;26502;51.886;15.604;2023-06-22T12:20:14;100925.26;;;31.39;33.75
40794;BME280;26502;51.886;15.604;2023-06-22T12:25:20;100918.25;;;31.03;33.37
40794;BME280;26502;51.886;15.604;2023-06-22T12:30:26;100919.70;;;30.89;33.54
40794;BME280;26502;51.886;15.604;2023-06-22T12:35:32;100921.68;;;30.72;33.66
40794;BME280;26502;51.886;15.604;2023-06-22T12:40:38;100914.34;;;30.51;33.71
40794;BME280;26502;51.886;15.604;2023-06-22T12:45:44;100913.66;;;30.45;33.77
40794;BME280;26502;51.886;15.604;2023-06-22T12:50:49;100910.80;;;30.53;33.78
40794;BME280;26502;51.886;15.604;2023-06-22T12:55:55;100909.95;;;30.64;33.80
40794;BME280;26502;51.886;15.604;2023-06-22T13:01:01;100904.70;;;31.32;33.42
40794;BME280;26502;51.886;15.604;2023-06-22T13:06:07;100897.00;;;31.75;32.99
40794;BME280;26502;51.886;15.604;2023-06-22T13:11:13;100896.17;;;32.13;32.70
40794;BME280;26502;51.886;15.604;2023-06-22T13:16:18;100893.46;;;32.58;31.90
40794;BME280;26502;51.886;15.604;2023-06-22T13:21:24;100887.32;;;32.94;31.80
40794;BME280;26502;51.886;15.604;2023-06-22T13:26:30;100887.80;;;33.18;31.19
40794;BME280;26502;51.886;15.604;2023-06-22T13:31:36;100878.27;;;33.18;30.72
40794;BME280;26502;51.886;15.604;2023-06-22T13:36:43;100872.98;;;33.50;30.65
40794;BME280;26502;51.886;15.604;2023-06-22T13:41:49;100869.39;;;33.75;30.35
40794;BME280;26502;51.886;15.604;2023-06-22T13:46:54;100862.96;;;33.36;30.17
40794;BME280;26502;51.886;15.604;2023-06-22T13:52:00;100868.66;;;32.86;29.98
40794;BME280;26502;51.886;15.604;2023-06-22T13:57:08;100865.36;;;32.60;30.18
40794;BME280;26502;51.886;15.604;2023-06-22T14:02:12;100857.48;;;32.45;30.11
40794;BME280;26502;51.886;15.604;2023-06-22T14:07:18;100852.89;;;32.45;30.20
40794;BME280;26502;51.886;15.604;2023-06-22T14:12:25;100849.75;;;32.54;30.27
40794;BME280;26502;51.886;15.604;2023-06-22T14:17:31;100844.86;;;32.54;30.19
40794;BME280;26502;51.886;15.604;2023-06-22T14:22:37;100837.64;;;32.59;30.32
40794;BME280;26502;51.886;15.604;2023-06-22T14:27:44;100830.44;;;32.87;30.26
40794;BME280;26502;51.886;15.604;2023-06-22T14:32:49;100826.07;;;32.78;29.85
40794;BME280;26502;51.886;15.604;2023-06-22T14:37:55;100817.55;;;32.70;29.75
40794;BME280;26502;51.886;15.604;2023-06-22T14:43:01;100811.10;;;33.11;29.92
40794;BME280;26502;51.886;15.604;2023-06-22T14:48:07;100803.30;;;33.23;29.39
40794;BME280;26502;51.886;15.604;2023-06-22T14:53:13;100800.42;;;33.50;29.52
40794;BME280;26502;51.886;15.604;2023-06-22T14:58:18;100804.66;;;34.00;29.16
40794;BME280;26502;51.886;15.604;2023-06-22T15:03:24;100798.21;;;33.86;29.10
40794;BME280;26502;51.886;15.604;2023-06-22T15:08:33;100792.84;;;33.17;29.21
40794;BME280;26502;51.886;15.604;2023-06-22T15:13:41;100792.39;;;32.73;29.39
40794;BME280;26502;51.886;15.604;2023-06-22T15:18:47;100785.91;;;32.36;29.77
40794;BME280;26502;51.886;15.604;2023-06-22T15:23:53;100780.13;;;32.26;29.96
40794;BME280;26502;51.886;15.604;2023-06-22T15:28:59;100766.31;;;32.60;30.02
40794;BME280;26502;51.886;15.604;2023-06-22T15:34:04;100756.92;;;33.22;29.91
40794;BME280;26502;51.886;15.604;2023-06-22T15:39:11;100755.62;;;33.03;28.95
40794;BME280;26502;51.886;15.604;2023-06-22T15:44:17;100751.49;;;32.73;29.23
40794;BME280;26502;51.886;15.604;2023-06-22T15:49:23;100755.35;;;32.36;29.37
40794;BME280;26502;51.886;15.604;2023-06-22T15:54:29;100737.92;;;32.57;29.55
40794;BME280;26502;51.886;15.604;2023-06-22T15:59:34;100721.58;;;32.70;29.36
40794;BME280;26502;51.886;15.604;2023-06-22T16:04:40;100723.08;;;32.97;29.39
40794;BME280;26502;51.886;15.604;2023-06-22T16:09:46;100718.46;;;32.94;29.17
40794;BME280;26502;51.886;15.604;2023-06-22T16:14:52;100714.19;;;32.83;29.04
40794;BME280;26502;51.886;15.604;2023-06-22T16:19:58;100706.71;;;32.78;29.04
40794;BME280;26502;51.886;15.604;2023-06-22T16:25:06;100714.88;;;32.83;29.18
40794;BME280;26502;51.886;15.604;2023-06-22T16:30:12;100719.49;;;32.72;28.95
40794;BME280;26502;51.886;15.604;2023-06-22T16:35:18;100712.71;;;32.60;28.99
40794;BME280;26502;51.886;15.604;2023-06-22T16:40:23;100702.68;;;32.43;29.13
40794;BME280;26502;51.886;15.604;2023-06-22T16:45:28;100685.94;;;32.33;29.33
40794;BME280;26502;51.886;15.604;2023-06-22T16:50:36;100681.24;;;32.22;29.22
40794;BME280;26502;51.886;15.604;2023-06-22T16:55:42;100683.91;;;32.00;29.43
40794;BME280;26502;51.886;15.604;2023-06-22T17:00:48;100679.88;;;31.91;29.35
40794;BME280;26502;51.886;15.604;2023-06-22T17:05:56;100679.08;;;31.45;29.45
40794;BME280;26502;51.886;15.604;2023-06-22T17:11:02;100669.46;;;31.21;29.77
40794;BME280;26502;51.886;15.604;2023-06-22T17:16:10;100663.78;;;31.04;29.79
40794;BME280;26502;51.886;15.604;2023-06-22T17:21:23;100649.53;;;30.87;29.98
40794;BME280;26502;51.886;15.604;2023-06-22T17:26:31;100647.05;;;30.69;30.28
40794;BME280;26502;51.886;15.604;2023-06-22T17:31:40;100645.53;;;30.51;30.46
40794;BME280;26502;51.886;15.604;2023-06-22T17:36:49;100646.11;;;30.35;30.52
40794;BME280;26502;51.886;15.604;2023-06-22T17:41:55;100642.48;;;30.18;30.68
40794;BME280;26502;51.886;15.604;2023-06-22T17:47:01;100639.84;;;30.11;30.90
40794;BME280;26502;51.886;15.604;2023-06-22T17:52:17;100631.11;;;29.92;30.98
40794;BME280;26502;51.886;15.604;2023-06-22T17:57:23;100625.64;;;29.82;31.42
40794;BME280;26502;51.886;15.604;2023-06-22T18:02:28;100607.48;;;29.68;31.58
40794;BME280;26502;51.886;15.604;2023-06-22T18:07:35;100599.66;;;29.58;31.79
40794;BME280;26502;51.886;15.604;2023-06-22T18:12:42;100603.69;;;29.54;31.85
40794;BME280;26502;51.886;15.604;2023-06-22T18:17:51;100591.27;;;29.41;31.75
40794;BME280;26502;51.886;15.604;2023-06-22T18:22:58;100582.05;;;29.13;31.92
40794;BME280;26502;51.886;15.604;2023-06-22T18:28:06;100583.79;;;28.96;32.27
40794;BME280;26502;51.886;15.604;2023-06-22T18:33:13;100571.14;;;28.88;32.41
40794;BME280;26502;51.886;15.604;2023-06-22T18:38:19;100563.40;;;28.68;32.64
40794;BME280;26502;51.886;15.604;2023-06-22T18:43:25;100559.69;;;28.56;32.98
40794;BME280;26502;51.886;15.604;2023-06-22T18:48:31;100542.15;;;28.34;33.16
40794;BME280;26502;51.886;15.604;2023-06-22T18:53:36;100543.80;;;28.19;33.69
40794;BME280;26502;51.886;15.604;2023-06-22T18:58:42;100542.83;;;28.01;33.90
40794;BME280;26502;51.886;15.604;2023-06-22T19:03:51;100538.32;;;27.83;34.22
40794;BME280;26502;51.886;15.604;2023-06-22T19:09:15;100547.39;;;27.70;34.34
40794;BME280;26502;51.886;15.604;2023-06-22T19:14:23;100547.48;;;27.57;34.93
40794;BME280;26502;51.886;15.604;2023-06-22T19:19:29;100550.61;;;27.38;35.13
40794;BME280;26502;51.886;15.604;2023-06-22T19:24:49;100543.27;;;27.21;35.59
40794;BME280;26502;51.886;15.604;2023-06-22T19:29:57;100536.64;;;27.08;35.74
40794;BME280;26502;51.886;15.604;2023-06-22T19:35:03;100543.06;;;26.93;36.19
40794;BME280;26502;51.886;15.604;2023-06-22T19:40:15;100557.50;;;26.75;36.38
40794;BME280;26502;51.886;15.604;2023-06-22T19:45:21;100571.65;;;26.58;36.93
40794;BME280;26502;51.886;15.604;2023-06-22T19:50:33;100564.41;;;26.51;37.39
40794;BME280;26502;51.886;15.604;2023-06-22T19:55:44;100550.63;;;26.41;38.00
40794;BME280;26502;51.886;15.604;2023-06-22T20:00:50;100544.60;;;26.24;38.11
40794;BME280;26502;51.886;15.604;2023-06-22T20:06:09;100535.58;;;26.03;38.20
40794;BME280;26502;51.886;15.604;2023-06-22T20:11:22;100534.95;;;25.86;38.68
40794;BME280;26502;51.886;15.604;2023-06-22T20:16:29;100533.38;;;25.69;38.90
40794;BME280;26502;51.886;15.604;2023-06-22T20:21:36;100538.23;;;25.58;39.40
40794;BME280;26502;51.886;15.604;2023-06-22T20:26:43;100535.30;;;25.49;39.58
40794;BME280;26502;51.886;15.604;2023-06-22T20:31:49;100535.18;;;25.46;39.83
40794;BME280;26502;51.886;15.604;2023-06-22T20:36:54;100530.55;;;25.40;40.28
40794;BME280;26502;51.886;15.604;2023-06-22T20:42:01;100525.88;;;25.34;40.25
40794;BME280;26502;51.886;15.604;2023-06-22T20:47:08;100520.71;;;25.27;40.29
40794;BME280;26502;51.886;15.604;2023-06-22T20:52:14;100520.50;;;25.19;40.59
40794;BME280;26502;51.886;15.604;2023-06-22T20:57:21;100517.72;;;25.12;40.72
40794;BME280;26502;51.886;15.604;2023-06-22T21:02:27;100503.61;;;25.06;40.97
40794;BME280;26502;51.886;15.604;2023-06-22T21:07:33;100500.13;;;24.97;41.10
40794;BME280;26502;51.886;15.604;2023-06-22T21:12:39;100490.14;;;24.91;41.25
40794;BME280;26502;51.886;15.604;2023-06-22T21:17:46;100480.02;;;24.91;41.35
40794;BME280;26502;51.886;15.604;2023-06-22T21:22:52;100456.97;;;24.89;41.39
40794;BME280;26502;51.886;15.604;2023-06-22T21:27:58;100443.95;;;24.88;41.47
40794;BME280;26502;51.886;15.604;2023-06-22T21:33:04;100425.90;;;24.85;41.48
40794;BME280;26502;51.886;15.604;2023-06-22T21:38:09;100401.92;;;24.89;41.45
40794;BME280;26502;51.886;15.604;2023-06-22T21:43:15;100387.08;;;24.88;41.26
40794;BME280;26502;51.886;15.604;2023-06-22T21:48:21;100373.30;;;24.84;41.39
40794;BME280;26502;51.886;15.604;2023-06-22T21:53:27;100356.36;;;24.85;41.23
40794;BME280;26502;51.886;15.604;2023-06-22T21:58:33;100333.13;;;24.79;41.18
40794;BME280;26502;51.886;15.604;2023-06-22T22:03:38;100336.22;;;24.79;41.03
40794;BME280;26502;51.886;15.604;2023-06-22T22:08:47;100339.67;;;24.79;41.05
40794;BME280;26502;51.886;15.604;2023-06-22T22:13:53;100348.20;;;24.74;41.00
40794;BME280;26502;51.886;15.604;2023-06-22T22:18:58;100366.92;;;24.70;41.02
40794;BME280;26502;51.886;15.604;2023-06-22T22:24:04;100387.85;;;24.67;40.91
40794;BME280;26502;51.886;15.604;2023-06-22T22:29:10;100407.33;;;24.70;40.93
40794;BME280;26502;51.886;15.604;2023-06-22T22:34:18;100387.90;;;24.71;40.97
40794;BME280;26502;51.886;15.604;2023-06-22T22:39:33;100382.10;;;24.63;41.00
40794;BME280;26502;51.886;15.604;2023-06-22T22:44:41;100394.92;;;24.59;41.30
40794;BME280;26502;51.886;15.604;2023-06-22T22:49:46;100415.73;;;24.60;41.20
40794;BME280;26502;51.886;15.604;2023-06-22T22:54:52;100423.95;;;24.52;41.49
40794;BME280;26502;51.886;15.604;2023-06-22T22:59:58;100428.81;;;24.46;41.82
40794;BME280;26502;51.886;15.604;2023-06-22T23:05:04;100433.92;;;24.41;42.06
40794;BME280;26502;51.886;15.604;2023-06-22T23:10:11;100437.34;;;24.33;42.32
40794;BME280;26502;51.886;15.604;2023-06-22T23:15:17;100439.64;;;24.26;42.83
40794;BME280;26502;51.886;15.604;2023-06-22T23:20:23;100427.18;;;24.18;43.95
40794;BME280;26502;51.886;15.604;2023-06-22T23:25:28;100406.42;;;23.99;44.43
40794;BME280;26502;51.886;15.604;2023-06-22T23:30:36;100388.56;;;23.84;45.00
40794;BME280;26502;51.886;15.604;2023-06-22T23:35:42;100396.91;;;23.68;46.17
40794;BME280;26502;51.886;15.604;2023-06-22T23:40:48;100397.27;;;23.46;46.79
40794;BME280;26502;51.886;15.604;2023-06-22T23:45:54;100396.70;;;23.23;48.08
40794;BME280;26502;51.886;15.604;2023-06-22T23:51:00;100380.52;;;22.93;49.28
40794;BME280;26502;51.886;15.604;2023-06-22T23:56:06;100381.65;;;22.67;50.16
